createdAt,value
2023-05-17T00:01:43.045Z,19.90
2023-05-17T00:04:30.534Z,20.77
2023-05-17T00:07:18.261Z,20.10
2023-05-17T00:10:06.409Z,19.95
2023-05-17T00:12:54.233Z,19.73
2023-05-17T00:15:46.323Z,19.58
2023-05-17T00:18:33.947Z,17.90
2023-05-17T00:21:21.721Z,19.27
2023-05-17T00:24:09.875Z,18.90
2023-05-17T00:26:57.595Z,18.35
2023-05-17T00:29:45.126Z,18.90
2023-05-17T00:32:34.060Z,19.55
2023-05-17T00:35:22.108Z,19.60
2023-05-17T00:38:09.903Z,18.45
2023-05-17T00:40:57.589Z,18.42
2023-05-17T00:43:46.422Z,17.85
2023-05-17T00:46:34.947Z,17.73
2023-05-17T00:49:24.138Z,16.98
2023-05-17T00:52:11.657Z,19.70
2023-05-17T00:54:59.771Z,15.55
2023-05-17T00:57:47.654Z,16.38
2023-05-17T01:00:35.186Z,14.27
2023-05-17T01:03:23.330Z,13.85
2023-05-17T01:06:13.642Z,15.50
2023-05-17T01:09:01.504Z,15.43
2023-05-17T01:11:56.336Z,15.27
2023-05-17T01:14:53.286Z,15.32
2023-05-17T01:17:45.363Z,15.30
2023-05-17T01:20:38.173Z,14.70
2023-05-17T01:23:40.371Z,15.18
2023-05-17T01:26:39.498Z,13.15
2023-05-17T01:29:30.351Z,14.63
2023-05-17T01:32:19.012Z,14.02
2023-05-17T01:35:07.229Z,12.48
2023-05-17T01:37:56.188Z,13.68
2023-05-17T01:40:49.465Z,12.43
2023-05-17T01:43:45.012Z,11.70
2023-05-17T01:46:37.900Z,12.40
2023-05-17T01:49:31.067Z,11.45
2023-05-17T01:52:26.185Z,11.65
2023-05-17T01:55:25.036Z,11.80
2023-05-17T01:58:14.405Z,10.05
2023-05-17T02:01:04.753Z,11.02
2023-05-17T02:03:55.225Z,10.45
2023-05-17T02:06:43.406Z,10.90
2023-05-17T02:09:31.008Z,11.43
2023-05-17T02:12:18.554Z,10.32
2023-05-17T02:15:08.327Z,10.27
2023-05-17T02:17:57.741Z,10.18
2023-05-17T02:20:45.624Z,11.13
2023-05-17T02:23:34.959Z,8.68
2023-05-17T02:26:22.334Z,9.18
2023-05-17T02:29:11.138Z,9.07
2023-05-17T02:31:58.987Z,9.05
2023-05-17T02:34:48.133Z,9.07
2023-05-17T02:37:35.799Z,7.70
2023-05-17T02:40:23.485Z,8.15
2023-05-17T02:43:11.224Z,8.68
2023-05-17T02:45:59.396Z,8.82
2023-05-17T02:48:49.221Z,9.35
2023-05-17T02:51:38.209Z,8.20
2023-05-17T02:54:27.384Z,8.75
2023-05-17T02:57:15.134Z,8.80
2023-05-17T03:00:03.523Z,9.20
2023-05-17T03:02:51.235Z,8.57
2023-05-17T03:05:39.049Z,8.40
2023-05-17T03:08:28.028Z,8.02
2023-05-17T03:11:16.467Z,8.45
2023-05-17T03:14:04.064Z,7.97
2023-05-17T03:16:52.417Z,8.15
2023-05-17T03:19:40.049Z,8.50
2023-05-17T03:22:28.242Z,7.53
2023-05-17T03:25:20.552Z,7.90
2023-05-17T03:28:08.445Z,7.32
2023-05-17T03:30:56.240Z,7.70
2023-05-17T03:33:44.883Z,7.65
2023-05-17T03:36:34.228Z,7.05
2023-05-17T03:39:22.076Z,7.47
2023-05-17T03:42:11.346Z,7.72
2023-05-17T03:44:59.009Z,7.97
2023-05-17T03:47:46.455Z,7.38
2023-05-17T03:50:34.336Z,6.32
2023-05-17T03:53:22.513Z,6.03
2023-05-17T03:56:10.253Z,6.55
2023-05-17T03:59:00.605Z,6.60
2023-05-17T04:01:48.429Z,6.13
2023-05-17T04:04:35.916Z,5.45
2023-05-17T04:07:23.458Z,5.80
2023-05-17T04:10:11.796Z,6.53
2023-05-17T04:12:59.580Z,5.57
2023-05-17T04:15:48.566Z,5.32
2023-05-17T04:18:37.261Z,5.50
2023-05-17T04:21:24.859Z,5.72
2023-05-17T04:24:12.801Z,5.57
2023-05-17T04:27:03.256Z,4.32
2023-05-17T04:29:51.481Z,5.25
2023-05-17T04:32:40.433Z,4.43
2023-05-17T04:35:29.954Z,4.93
2023-05-17T04:38:18.241Z,5.05
2023-05-17T04:41:07.263Z,4.43
2023-05-17T04:43:57.631Z,4.50
2023-05-17T04:46:52.147Z,4.28
2023-05-17T04:49:41.640Z,4.90
2023-05-17T04:52:29.272Z,4.75
2023-05-17T04:55:16.829Z,4.50
2023-05-17T04:58:04.477Z,3.40
2023-05-17T05:00:53.725Z,3.78
2023-05-17T05:03:42.299Z,3.83
2023-05-17T05:06:32.646Z,3.63
2023-05-17T05:09:20.352Z,3.42
2023-05-17T05:12:09.045Z,2.65
2023-05-17T05:14:58.554Z,2.80
2023-05-17T05:17:48.992Z,3.15
2023-05-17T05:20:36.526Z,3.17
2023-05-17T05:23:27.623Z,2.90
2023-05-17T05:26:15.355Z,3.33
2023-05-17T05:29:02.894Z,3.38
2023-05-17T05:31:51.420Z,3.38
2023-05-17T05:34:40.209Z,2.95
2023-05-17T05:37:27.884Z,2.83
2023-05-17T05:40:17.454Z,3.15
2023-05-17T05:43:05.278Z,3.05
2023-05-17T05:45:53.132Z,2.67
2023-05-17T05:48:42.501Z,2.70
2023-05-17T05:51:30.714Z,2.63
2023-05-17T05:54:18.500Z,2.20
2023-05-17T05:57:07.986Z,2.40
2023-05-17T05:59:56.194Z,2.83
2023-05-17T06:02:43.804Z,2.55
2023-05-17T06:05:31.739Z,2.42
2023-05-17T06:08:19.376Z,2.55
2023-05-17T06:11:07.220Z,2.70
2023-05-17T06:13:56.816Z,2.22
2023-05-17T06:16:44.692Z,2.30
2023-05-17T06:19:32.537Z,2.10
2023-05-17T06:22:22.308Z,2.53
2023-05-17T06:25:11.085Z,2.22
2023-05-17T06:27:58.567Z,2.53
2023-05-17T06:30:47.749Z,3.05
2023-05-17T06:33:35.671Z,2.58
2023-05-17T06:36:24.388Z,2.22
2023-05-17T06:39:13.069Z,2.80
2023-05-17T06:42:01.522Z,2.38
2023-05-17T06:44:52.651Z,3.20
2023-05-17T06:47:41.934Z,3.20
2023-05-17T06:50:30.870Z,2.90
2023-05-17T06:53:18.599Z,2.90
2023-05-17T06:56:06.667Z,2.55
2023-05-17T06:58:53.997Z,2.85
2023-05-17T07:01:42.525Z,3.15
2023-05-17T07:04:31.893Z,2.67
2023-05-17T07:07:19.474Z,2.90
2023-05-17T07:10:08.479Z,2.80
2023-05-17T07:12:56.237Z,2.33
2023-05-17T07:15:44.165Z,2.47
2023-05-17T07:18:31.664Z,3.42
2023-05-17T07:21:20.849Z,3.05
2023-05-17T07:24:09.573Z,2.40
2023-05-17T07:26:57.041Z,2.35
2023-05-17T07:29:44.482Z,2.80
2023-05-17T07:32:32.248Z,3.00
2023-05-17T07:35:21.964Z,2.72
2023-05-17T07:38:11.762Z,3.65
2023-05-17T07:40:59.498Z,3.15
2023-05-17T07:43:46.826Z,3.47
2023-05-17T07:46:34.203Z,3.00
2023-05-17T07:49:22.847Z,3.97
2023-05-17T07:52:10.488Z,3.20
2023-05-17T07:54:59.480Z,3.15
2023-05-17T07:57:48.294Z,2.92
2023-05-17T08:00:36.148Z,3.17
2023-05-17T08:03:24.013Z,2.67
2023-05-17T08:06:11.848Z,2.92
2023-05-17T08:08:59.792Z,3.25
2023-05-17T08:11:48.865Z,2.97
2023-05-17T08:14:36.912Z,3.33
2023-05-17T08:17:24.742Z,3.50
2023-05-17T08:20:13.197Z,3.67
2023-05-17T08:23:01.193Z,3.80
2023-05-17T08:25:48.600Z,4.55
2023-05-17T08:28:37.776Z,3.70
2023-05-17T08:31:25.452Z,4.07
2023-05-17T08:34:13.597Z,4.50
2023-05-17T08:37:02.022Z,4.57
2023-05-17T08:39:51.543Z,4.60
2023-05-17T08:42:39.560Z,4.13
2023-05-17T08:45:30.656Z,4.03
2023-05-17T08:48:20.065Z,4.55
2023-05-17T08:51:08.806Z,4.25
2023-05-17T08:53:56.617Z,3.97
2023-05-17T08:56:45.288Z,4.18
2023-05-17T08:59:34.050Z,4.18
2023-05-17T09:02:24.101Z,4.55
2023-05-17T09:05:13.874Z,4.28
2023-05-17T09:08:02.984Z,3.72
2023-05-17T09:10:50.763Z,4.40
2023-05-17T09:13:39.855Z,4.38
2023-05-17T09:16:29.990Z,4.82
2023-05-17T09:19:19.366Z,4.30
2023-05-17T09:22:09.090Z,4.60
2023-05-17T09:25:00.248Z,4.13
2023-05-17T09:27:48.070Z,4.57
2023-05-17T09:30:38.195Z,3.85
2023-05-17T09:33:25.822Z,3.88
2023-05-17T09:36:19.352Z,4.38
2023-05-17T09:39:10.782Z,4.78
2023-05-17T09:41:58.609Z,3.88
2023-05-17T09:44:51.126Z,4.43
2023-05-17T09:47:39.060Z,4.72
2023-05-17T09:50:27.002Z,4.40
2023-05-17T09:53:29.846Z,3.40
2023-05-17T09:56:19.852Z,4.20
2023-05-17T09:59:14.038Z,4.45
2023-05-17T10:02:02.694Z,4.40
2023-05-17T10:04:52.388Z,3.85
2023-05-17T10:07:42.273Z,3.90
2023-05-17T10:10:32.635Z,4.25
2023-05-17T10:13:24.946Z,3.65
2023-05-17T10:16:14.163Z,4.53
2023-05-17T10:19:03.798Z,3.75
2023-05-17T10:21:52.486Z,3.50
2023-05-17T10:24:41.664Z,4.45
2023-05-17T10:27:31.715Z,3.42
2023-05-17T10:30:21.361Z,3.78
2023-05-17T10:33:09.930Z,3.88
2023-05-17T10:35:57.718Z,3.33
2023-05-17T10:38:45.398Z,3.78
2023-05-17T10:41:35.702Z,3.85
2023-05-17T10:44:25.083Z,3.30
2023-05-17T10:47:15.612Z,3.35
2023-05-17T10:50:04.250Z,2.40
2023-05-17T10:52:52.286Z,3.58
2023-05-17T10:55:42.733Z,3.28
2023-05-17T10:58:30.544Z,3.28
2023-05-17T11:01:51.488Z,3.35
2023-05-17T11:04:42.820Z,3.20
2023-05-17T11:07:32.358Z,3.25
2023-05-17T11:10:23.363Z,3.03
2023-05-17T11:13:24.037Z,3.47
2023-05-17T11:16:11.432Z,3.20
2023-05-17T11:19:09.139Z,3.42
2023-05-17T11:21:58.286Z,3.38
2023-05-17T11:24:46.566Z,2.90
2023-05-17T11:27:38.795Z,2.58
2023-05-17T11:30:29.423Z,2.92
2023-05-17T11:33:29.848Z,2.60
2023-05-17T11:36:25.225Z,2.90
2023-05-17T11:39:15.428Z,2.88
2023-05-17T11:42:03.230Z,2.42
2023-05-17T11:44:51.584Z,2.35
2023-05-17T11:47:42.780Z,2.85
2023-05-17T11:50:31.144Z,2.20
2023-05-17T11:53:19.557Z,2.85
2023-05-17T11:56:09.953Z,2.83
2023-05-17T11:58:57.698Z,2.90
2023-05-17T12:01:46.129Z,2.30
2023-05-17T12:04:37.577Z,2.30
2023-05-17T12:07:25.803Z,2.40
2023-05-17T12:10:15.356Z,2.10
2023-05-17T12:13:04.353Z,2.35
2023-05-17T12:15:57.111Z,2.47
2023-05-17T12:18:46.333Z,2.22
2023-05-17T12:21:34.647Z,2.70
2023-05-17T12:24:22.233Z,2.72
2023-05-17T12:27:10.070Z,2.35
2023-05-17T12:29:58.761Z,2.40
2023-05-17T12:32:47.871Z,2.97
2023-05-17T12:35:36.132Z,3.25
2023-05-17T12:38:24.134Z,2.53
2023-05-17T12:41:13.443Z,3.10
2023-05-17T12:44:13.784Z,2.90
2023-05-17T12:47:05.454Z,2.40
2023-05-17T12:49:55.328Z,2.90
2023-05-17T12:52:42.966Z,3.58
2023-05-17T12:55:38.115Z,3.05
2023-05-17T12:58:26.098Z,3.05
2023-05-17T13:01:14.734Z,3.20
2023-05-17T13:04:04.223Z,3.33
2023-05-17T13:06:53.395Z,3.50
2023-05-17T13:09:48.524Z,3.78
2023-05-17T13:12:39.284Z,3.10
2023-05-17T13:15:31.357Z,3.65
2023-05-17T13:18:20.633Z,3.25
2023-05-17T13:21:09.689Z,2.85
2023-05-17T13:23:57.532Z,3.35
2023-05-17T13:26:44.969Z,3.42
2023-05-17T13:29:39.481Z,2.95
2023-05-17T13:32:28.493Z,2.95
2023-05-17T13:35:16.180Z,2.92
2023-05-17T13:38:05.215Z,2.85
2023-05-17T13:40:52.906Z,2.90
2023-05-17T13:43:40.718Z,2.92
2023-05-17T13:46:28.497Z,3.00
2023-05-17T13:49:16.109Z,3.63
2023-05-17T13:52:08.483Z,2.95
2023-05-17T13:54:57.773Z,2.78
2023-05-17T13:57:45.996Z,3.10
2023-05-17T14:00:33.563Z,3.17
2023-05-17T14:03:21.565Z,2.75
2023-05-17T14:06:09.362Z,3.28
2023-05-17T14:08:59.382Z,3.38
2023-05-17T14:11:48.271Z,3.10
2023-05-17T14:14:36.253Z,3.35
2023-05-17T14:17:24.005Z,2.72
2023-05-17T14:20:12.882Z,3.00
2023-05-17T14:23:00.691Z,2.83
2023-05-17T14:25:49.166Z,3.72
2023-05-17T14:28:39.220Z,3.17
2023-05-17T14:31:28.274Z,4.30
2023-05-17T14:34:16.354Z,4.55
2023-05-17T14:37:03.930Z,4.40
2023-05-17T14:40:05.219Z,3.85
2023-05-17T14:42:54.288Z,4.25
2023-05-17T14:45:43.053Z,4.15
2023-05-17T14:48:31.145Z,4.07
2023-05-17T14:51:18.951Z,2.85
2023-05-17T14:54:07.033Z,2.65
2023-05-17T14:56:54.702Z,3.50
2023-05-17T14:59:45.164Z,3.20
2023-05-17T15:02:34.222Z,2.97
2023-05-17T15:05:22.049Z,3.58
2023-05-17T15:08:11.010Z,3.83
2023-05-17T15:10:59.780Z,3.50
2023-05-17T15:13:47.746Z,4.03
2023-05-17T15:16:35.931Z,4.05
2023-05-17T15:19:25.200Z,3.35
2023-05-17T15:22:12.820Z,3.20
2023-05-17T15:25:00.244Z,3.15
2023-05-17T15:27:49.249Z,3.33
2023-05-17T15:30:36.597Z,3.08
2023-05-17T15:33:24.419Z,3.65
2023-05-17T15:36:15.201Z,3.13
2023-05-17T15:39:02.809Z,3.50
2023-05-17T15:41:50.804Z,4.00
2023-05-17T15:44:38.373Z,3.03
2023-05-17T15:47:38.858Z,4.25
2023-05-17T15:50:30.936Z,3.67
2023-05-17T15:53:20.025Z,3.08
2023-05-17T15:56:10.234Z,3.15
2023-05-17T15:58:57.835Z,3.50
2023-05-17T16:01:46.478Z,3.70
2023-05-17T16:04:34.320Z,3.53
2023-05-17T16:07:22.120Z,3.33
2023-05-17T16:10:12.059Z,4.55
2023-05-17T16:13:00.461Z,3.60
2023-05-17T16:15:48.130Z,3.20
2023-05-17T16:18:36.312Z,3.10
2023-05-17T16:21:23.805Z,3.83
2023-05-17T16:24:11.697Z,2.95
2023-05-17T16:27:00.678Z,2.83
2023-05-17T16:29:48.223Z,2.80
2023-05-17T16:32:36.099Z,2.58
2023-05-17T16:35:24.084Z,3.17
2023-05-17T16:38:11.516Z,3.03
2023-05-17T16:41:03.032Z,2.95
2023-05-17T16:43:51.829Z,3.17
2023-05-17T16:46:39.511Z,3.10
2023-05-17T16:49:27.547Z,3.50
2023-05-17T16:52:15.689Z,4.13
2023-05-17T16:55:04.169Z,2.92
2023-05-17T16:57:51.755Z,3.28
2023-05-17T17:00:40.682Z,4.05
2023-05-17T17:03:28.537Z,3.03
2023-05-17T17:06:15.933Z,3.20
2023-05-17T17:09:07.030Z,2.85
2023-05-17T17:11:55.782Z,3.72
2023-05-17T17:14:43.580Z,3.72
2023-05-17T17:17:32.562Z,4.00
2023-05-17T17:20:20.058Z,3.72
2023-05-17T17:23:07.892Z,3.70
2023-05-17T17:25:55.938Z,4.05
2023-05-17T17:28:43.785Z,4.03
2023-05-17T17:31:31.702Z,3.85
2023-05-17T17:34:22.904Z,4.03
2023-05-17T17:37:11.122Z,4.03
2023-05-17T17:39:58.936Z,3.33
2023-05-17T17:42:47.322Z,3.15
2023-05-17T17:45:34.893Z,3.20
2023-05-17T17:48:22.632Z,2.92
2023-05-17T17:51:11.639Z,2.50
2023-05-17T17:53:59.616Z,3.03
2023-05-17T17:56:47.342Z,2.83
2023-05-17T17:59:34.969Z,3.75
2023-05-17T18:02:22.546Z,4.35
2023-05-17T18:05:11.482Z,4.97
2023-05-17T18:08:00.737Z,5.65
2023-05-17T18:10:48.537Z,4.32
2023-05-17T18:13:37.081Z,5.95
2023-05-17T18:16:24.791Z,5.22
2023-05-17T18:19:12.473Z,4.78
2023-05-17T18:21:59.917Z,4.47
2023-05-17T18:24:49.545Z,4.72
2023-05-17T18:27:37.884Z,4.55
2023-05-17T18:30:25.528Z,4.82
2023-05-17T18:33:13.033Z,6.25
2023-05-17T18:36:00.981Z,5.13
2023-05-17T18:38:50.073Z,4.65
2023-05-17T18:41:39.112Z,3.90
2023-05-17T18:44:26.712Z,4.25
2023-05-17T18:47:14.395Z,4.15
2023-05-17T18:50:02.284Z,4.30
2023-05-17T18:52:49.726Z,3.58
2023-05-17T18:55:37.471Z,4.32
2023-05-17T18:58:26.832Z,4.05
2023-05-17T19:01:14.680Z,3.47
2023-05-17T19:04:02.188Z,4.25
2023-05-17T19:06:50.039Z,4.35
2023-05-17T19:09:38.109Z,4.30
2023-05-17T19:12:25.715Z,4.22
2023-05-17T19:15:14.709Z,4.22
2023-05-17T19:18:02.158Z,4.85
2023-05-17T19:20:50.097Z,4.90
2023-05-17T19:23:38.049Z,4.70
2023-05-17T19:26:25.835Z,4.47
2023-05-17T19:29:13.432Z,5.70
2023-05-17T19:32:02.326Z,4.50
2023-05-17T19:34:50.171Z,5.35
2023-05-17T19:37:37.782Z,5.30
2023-05-17T19:40:25.582Z,5.38
2023-05-17T19:43:13.227Z,5.20
2023-05-17T19:46:01.151Z,4.75
2023-05-17T19:48:50.051Z,4.32
2023-05-17T19:51:37.694Z,5.32
2023-05-17T19:54:25.202Z,5.07
2023-05-17T19:57:12.970Z,8.57
2023-05-17T20:00:00.469Z,9.73
2023-05-17T20:02:48.184Z,8.57
2023-05-17T20:05:37.053Z,9.25
2023-05-17T20:08:24.874Z,7.75
2023-05-17T20:11:12.556Z,7.50
2023-05-17T20:14:00.346Z,7.18
2023-05-17T20:16:48.186Z,6.90
2023-05-17T20:19:36.077Z,6.25
2023-05-17T20:22:25.096Z,6.40
2023-05-17T20:25:12.568Z,6.50
2023-05-17T20:28:00.182Z,7.05
2023-05-17T20:30:48.251Z,7.70
2023-05-17T20:33:35.690Z,7.15
2023-05-17T20:36:23.106Z,6.57
2023-05-17T20:39:11.903Z,8.32
2023-05-17T20:42:01.441Z,6.93
2023-05-17T20:44:49.295Z,6.45
2023-05-17T20:47:37.912Z,7.40
2023-05-17T20:50:25.740Z,6.55
2023-05-17T20:53:13.566Z,6.45
2023-05-17T20:56:02.730Z,6.97
2023-05-17T20:58:50.367Z,6.90
2023-05-17T21:01:38.235Z,6.85
2023-05-17T21:04:26.193Z,6.60
2023-05-17T21:07:13.733Z,6.85
2023-05-17T21:10:01.494Z,6.35
2023-05-17T21:12:50.206Z,6.40
2023-05-17T21:15:38.071Z,6.82
2023-05-17T21:18:26.332Z,5.80
2023-05-17T21:21:14.249Z,6.10
2023-05-17T21:24:05.028Z,5.55
2023-05-17T21:26:52.819Z,6.30
2023-05-17T21:29:42.088Z,6.00
2023-05-17T21:32:30.264Z,5.40
2023-05-17T21:35:17.606Z,6.05
2023-05-17T21:38:04.974Z,6.07
2023-05-17T21:40:52.386Z,6.07
2023-05-17T21:43:40.227Z,6.30
2023-05-17T21:46:29.322Z,6.63
2023-05-17T21:49:16.895Z,6.95
2023-05-17T21:52:04.418Z,7.85
2023-05-17T21:54:51.956Z,7.40
2023-05-17T21:57:39.505Z,6.95
2023-05-17T22:00:28.868Z,6.32
2023-05-17T22:03:18.599Z,5.97
2023-05-17T22:06:06.817Z,5.75
2023-05-17T22:08:54.203Z,5.68
2023-05-17T22:11:41.838Z,6.95
2023-05-17T22:14:33.359Z,6.65
2023-05-17T22:17:29.532Z,6.22
2023-05-17T22:20:26.876Z,5.93
2023-05-17T22:23:15.349Z,6.65
2023-05-17T22:26:02.735Z,6.38
2023-05-17T22:28:52.693Z,6.53
2023-05-17T22:31:40.393Z,8.35
2023-05-17T22:34:28.298Z,6.30
2023-05-17T22:37:17.733Z,7.30
2023-05-17T22:40:06.643Z,6.97
2023-05-17T22:42:54.583Z,7.20
2023-05-17T22:45:42.631Z,7.97
2023-05-17T22:48:30.889Z,6.90
2023-05-17T22:51:18.740Z,5.93
2023-05-17T22:54:07.929Z,6.13
2023-05-17T22:56:55.499Z,7.05
2023-05-17T22:59:44.033Z,7.43
2023-05-17T23:02:31.670Z,6.53
2023-05-17T23:05:19.780Z,6.85
2023-05-17T23:08:07.947Z,6.38
2023-05-17T23:10:58.443Z,8.02
2023-05-17T23:13:46.223Z,7.53
2023-05-17T23:16:36.126Z,7.07
2023-05-17T23:19:23.861Z,6.63
2023-05-17T23:22:11.961Z,6.93
2023-05-17T23:25:00.782Z,7.32
2023-05-17T23:27:49.766Z,7.10
2023-05-17T23:30:40.033Z,8.02
2023-05-17T23:33:30.975Z,8.63
2023-05-17T23:36:20.773Z,8.30
2023-05-17T23:39:08.886Z,7.88
2023-05-17T23:41:56.607Z,7.50
2023-05-17T23:44:46.577Z,8.65
2023-05-17T23:47:34.267Z,8.27
2023-05-17T23:50:21.598Z,7.85
2023-05-17T23:53:09.939Z,7.55
2023-05-17T23:55:57.774Z,7.57
2023-05-17T23:58:45.768Z,7.40
